Havana, Cuba
Current Conditions -  °F | °C
As of 8:55 PM on Monday 20 Oct 2014 (Local Time) from MUHA Reporting Station
Few Clouds Few Clouds  
Wind Chill: 23°   Ceiling: Unl
Heat Index: 23°   Visibility: 6mi
Dew Point: 20°   Wind: 3mph
Humidity: 83%   Direction: 90°E
Pressure: 29.94"   Gusts: NA
Location:  23.12°N, 82.39°W
Report Text: MUHA 210055Z 09003KT 9000 FEW020 23/20 Q1014
Loading
Personal Weather Stations






























Interactive Weather Map
Tropical Storm Tracking
New forecast layout! Learn more

10-Day Weather Forecast

Advertisements
Track Severe Weather on mobile